Time;durP1;ratioP1;P1;durP2;ratioP2;P2;SDS_P1;SDS_P2;PMS_P1;PMS_P2;Temp;Humidity;BMP_temperature;BMP_pressure;BME280_temperature;BME280_humidity;BME280_pressure;Samples;Min_cycle;Max_cycle;Signal;HPM_P1;HPM_P2
2022/02/03 00:00:20;;;;;;;;;;;22.30;30.00;;;;;;5088029;28;20030;-61
2022/02/03 00:03:04;;;;;;;;;;;22.30;30.00;;;;;;5101634;28;20254;-61
2022/02/03 00:05:41;;;;;;;;;;;22.30;29.90;;;;;;5087476;28;19946;-61
2022/02/03 00:08:19;;;;;;;;;;;22.30;29.90;;;;;;5102837;28;19969;-61
2022/02/03 00:11:14;;;;;;;;;;;22.30;29.90;;;;;;5086923;28;19970;-61
2022/02/03 00:22:17;;;;;;;;;;;22.30;29.80;;;;;;5085438;28;19982;-61
2022/02/03 00:24:54;;;;;;;;;;;22.30;29.80;;;;;;5087504;28;19946;-61
2022/02/03 00:27:35;;;;;;;;;;;22.30;29.80;;;;;;5086565;28;19950;-61
2022/02/03 00:30:08;;;;;;;;;;;22.30;29.80;;;;;;5087557;28;19923;-61
2022/02/03 00:32:48;;;;;;;;;;;22.30;29.80;;;;;;5086480;28;19924;-61
2022/02/03 00:35:32;;;;;;;;;;;22.30;29.80;;;;;;5087331;28;19989;-61
2022/02/03 00:38:16;;;;;;;;;;;22.30;29.80;;;;;;5086062;28;19920;-61
2022/02/03 00:49:47;;;;;;;;;;;22.30;29.80;;;;;;5087283;28;19931;-61
2022/02/03 00:52:15;;;;;;;;;;;22.20;29.90;;;;;;5084908;28;19952;-61
2022/02/03 00:54:46;;;;;;;;;;;22.20;29.80;;;;;;5086777;28;19928;-61
2022/02/03 00:57:21;;;;;;;;;;;22.20;29.80;;;;;;5086083;28;19977;-61
2022/02/03 01:00:07;;;;;;;;;;;22.20;29.80;;;;;;5102236;28;20018;-61
2022/02/03 01:02:37;;;;;;;;;;;22.20;29.80;;;;;;5085877;28;20357;-61
2022/02/03 01:05:08;;;;;;;;;;;22.20;29.80;;;;;;5086862;28;20035;-61
2022/02/03 01:07:45;;;;;;;;;;;22.20;29.80;;;;;;5085273;28;20400;-61
2022/02/03 01:10:24;;;;;;;;;;;22.20;30.30;;;;;;5086769;28;20100;-61
2022/02/03 01:13:05;;;;;;;;;;;22.20;29.90;;;;;;5084864;28;19967;-61
2022/02/03 01:15:41;;;;;;;;;;;22.20;29.90;;;;;;5086420;28;20377;-61
2022/02/03 01:18:54;;;;;;;;;;;22.20;29.90;;;;;;5085298;28;20018;-61
2022/02/03 01:21:24;;;;;;;;;;;22.20;29.90;;;;;;5085509;28;19996;-61
2022/02/03 01:35:14;;;;;;;;;;;22.20;29.90;;;;;;5086896;28;19924;-61
2022/02/03 01:43:35;;;;;;;;;;;22.10;29.90;;;;;;5086830;28;20004;-62
2022/02/03 01:46:14;;;;;;;;;;;22.20;29.90;;;;;;5085301;28;19951;-61
2022/02/03 01:49:05;;;;;;;;;;;22.10;29.90;;;;;;5086654;28;20023;-61
2022/02/03 01:51:41;;;;;;;;;;;22.20;29.90;;;;;;5085764;28;20010;-62
2022/02/03 01:54:08;;;;;;;;;;;22.20;29.90;;;;;;5086369;28;20343;-62
2022/02/03 01:56:40;;;;;;;;;;;22.20;29.90;;;;;;5086883;28;19971;-62
2022/02/03 01:59:18;;;;;;;;;;;22.10;29.90;;;;;;5088874;28;19959;-61
2022/02/03 02:01:47;;;;;;;;;;;22.20;29.90;;;;;;5089041;28;19970;-61
2022/02/03 02:04:18;;;;;;;;;;;22.20;29.90;;;;;;5090613;28;19984;-61
2022/02/03 02:07:04;;;;;;;;;;;22.20;29.90;;;;;;5089063;28;19931;-61
2022/02/03 02:10:05;;;;;;;;;;;22.20;29.90;;;;;;5090138;28;20426;-61
2022/02/03 02:12:59;;;;;;;;;;;22.20;29.90;;;;;;5088021;28;19966;-61
2022/02/03 02:15:58;;;;;;;;;;;22.20;29.90;;;;;;5089462;28;19966;-62
2022/02/03 02:38:53;;;;;;;;;;;22.10;29.70;;;;;;5089211;28;20023;-62
2022/02/03 02:42:08;;;;;;;;;;;22.10;29.70;;;;;;5087732;28;20273;-61
2022/02/03 02:44:19;;;;;;;;;;;22.10;29.70;;;;;;5089195;28;19963;-61
2022/02/03 02:46:51;;;;;;;;;;;22.10;29.70;;;;;;5087602;28;20483;-62
2022/02/03 02:49:36;;;;;;;;;;;22.10;29.70;;;;;;5088745;28;20455;-61
2022/02/03 02:52:09;;;;;;;;;;;22.10;29.80;;;;;;5087082;28;20369;-61
2022/02/03 02:54:51;;;;;;;;;;;22.10;29.80;;;;;;5089124;28;20329;-62
2022/02/03 02:57:56;;;;;;;;;;;22.10;29.80;;;;;;5087662;28;19927;-61
2022/02/03 03:03:28;;;;;;;;;;;22.10;29.80;;;;;;5087562;28;19919;-62
2022/02/03 03:29:14;;;;;;;;;;;22.10;29.90;;;;;;5088502;28;19956;-62
2022/02/03 03:34:52;;;;;;;;;;;22.00;29.80;;;;;;5089079;28;20274;-61
2022/02/03 03:37:28;;;;;;;;;;;22.00;29.80;;;;;;5087273;28;20461;-62
2022/02/03 03:40:02;;;;;;;;;;;22.00;29.80;;;;;;5088635;28;19955;-61
2022/02/03 03:42:33;;;;;;;;;;;22.00;29.80;;;;;;5086580;28;19981;-62
2022/02/03 03:45:02;;;;;;;;;;;22.00;29.80;;;;;;5088093;28;20369;-62
2022/02/03 03:47:33;;;;;;;;;;;22.00;29.80;;;;;;5086493;28;19927;-62
2022/02/03 03:50:09;;;;;;;;;;;22.00;29.90;;;;;;5087452;28;19958;-61
2022/02/03 03:52:45;;;;;;;;;;;22.00;29.80;;;;;;5087037;28;19943;-62
2022/02/03 03:55:30;;;;;;;;;;;22.00;29.80;;;;;;5088121;28;19920;-61
2022/02/03 03:58:15;;;;;;;;;;;22.00;29.80;;;;;;5086960;28;20347;-61
2022/02/03 04:34:09;;;;;;;;;;;22.00;29.80;;;;;;5071805;28;20291;-63
2022/02/03 04:37:24;;;;;;;;;;;22.00;29.80;;;;;;5084842;28;19920;-61
2022/02/03 04:43:22;;;;;;;;;;;22.00;29.80;;;;;;5098853;28;19996;-61
2022/02/03 04:50:45;;;;;;;;;;;22.00;29.80;;;;;;5087263;28;20170;-61
2022/02/03 04:53:19;;;;;;;;;;;22.00;29.90;;;;;;5085848;28;20019;-61
2022/02/03 04:55:49;;;;;;;;;;;22.00;29.90;;;;;;5074846;28;20011;-61
2022/02/03 05:01:50;;;;;;;;;;;22.00;29.80;;;;;;5085605;28;19971;-61
2022/02/03 05:04:31;;;;;;;;;;;22.00;29.90;;;;;;5086830;28;19963;-61
2022/02/03 05:10:37;;;;;;;;;;;21.90;29.80;;;;;;5087131;28;19920;-62
2022/02/03 05:13:46;;;;;;;;;;;21.90;29.80;;;;;;5085780;28;20003;-61
2022/02/03 05:16:57;;;;;;;;;;;21.90;29.80;;;;;;5085998;28;19947;-61
2022/02/03 05:20:04;;;;;;;;;;;21.90;29.80;;;;;;5087020;28;19920;-61
2022/02/03 05:26:06;;;;;;;;;;;21.90;29.80;;;;;;5085737;28;19927;-61
2022/02/03 05:32:36;;;;;;;;;;;21.90;29.80;;;;;;5085340;28;19951;-61
2022/02/03 05:44:23;;;;;;;;;;;21.90;29.80;;;;;;5084434;28;19964;-61
2022/02/03 05:49:56;;;;;;;;;;;21.90;29.80;;;;;;5071175;28;20368;-61
2022/02/03 05:55:40;;;;;;;;;;;22.00;29.90;;;;;;5090450;28;19985;-61
2022/02/03 06:01:10;;;;;;;;;;;22.00;29.80;;;;;;5092018;28;19990;-61
2022/02/03 06:04:59;;;;;;;;;;;22.00;29.80;;;;;;5091194;28;20022;-62
2022/02/03 06:07:20;;;;;;;;;;;22.00;29.90;;;;;;5089504;28;20010;-61
2022/02/03 06:09:57;;;;;;;;;;;22.00;29.80;;;;;;5104557;28;20293;-61
2022/02/03 06:12:43;;;;;;;;;;;21.90;29.60;;;;;;5093304;28;19932;-61
2022/02/03 06:15:18;;;;;;;;;;;21.90;29.60;;;;;;5082341;28;19966;-61
2022/02/03 06:23:47;;;;;;;;;;;21.90;29.50;;;;;;5091801;28;19920;-62
2022/02/03 06:29:07;;;;;;;;;;;21.90;29.80;;;;;;5089354;28;19973;-61
2022/02/03 06:31:42;;;;;;;;;;;22.00;29.30;;;;;;5085245;28;19939;-60
2022/02/03 06:34:21;;;;;;;;;;;22.10;29.30;;;;;;5087209;28;19924;-60
2022/02/03 06:36:51;;;;;;;;;;;22.10;29.30;;;;;;5082204;28;19924;-60
2022/02/03 06:39:23;;;;;;;;;;;22.20;29.30;;;;;;5084697;28;20054;-60
2022/02/03 06:41:54;;;;;;;;;;;22.20;29.20;;;;;;5088091;28;19994;-60
2022/02/03 06:47:56;;;;;;;;;;;22.30;29.10;;;;;;5076216;28;19915;-60
2022/02/03 06:50:32;;;;;;;;;;;22.50;29.00;;;;;;5068226;28;19921;-61
2022/02/03 06:53:09;;;;;;;;;;;22.50;29.30;;;;;;5073834;28;19971;-64
2022/02/03 06:56:00;;;;;;;;;;;22.60;29.50;;;;;;5086829;28;20343;-62
2022/02/03 07:02:21;;;;;;;;;;;22.80;29.10;;;;;;5108889;28;19915;-62
2022/02/03 07:04:48;;;;;;;;;;;22.80;29.10;;;;;;5108287;28;19923;-62
2022/02/03 07:07:19;;;;;;;;;;;22.90;28.80;;;;;;5085677;28;19928;-62
2022/02/03 07:09:51;;;;;;;;;;;22.90;28.60;;;;;;5101691;28;19961;-65
2022/02/03 07:12:19;;;;;;;;;;;23.00;28.50;;;;;;5107374;28;20336;-62
2022/02/03 07:14:49;;;;;;;;;;;23.00;28.80;;;;;;5106736;28;19919;-62
2022/02/03 07:17:16;;;;;;;;;;;23.10;28.70;;;;;;5086129;28;20840;-62
2022/02/03 07:19:47;;;;;;;;;;;23.20;28.60;;;;;;5086819;28;19964;-60
2022/02/03 07:22:15;;;;;;;;;;;23.20;28.50;;;;;;5087454;28;19920;-61
2022/02/03 07:24:51;;;;;;;;;;;23.30;28.30;;;;;;5090552;28;19920;-61
2022/02/03 07:27:20;;;;;;;;;;;23.30;28.20;;;;;;5087927;28;19924;-60
2022/02/03 07:33:37;;;;;;;;;;;23.50;28.30;;;;;;5085587;28;19962;-62
2022/02/03 07:36:04;;;;;;;;;;;23.50;28.60;;;;;;5089715;28;19920;-60
2022/02/03 07:38:32;;;;;;;;;;;23.60;28.70;;;;;;5085848;28;19920;-61
2022/02/03 07:41:00;;;;;;;;;;;23.50;28.60;;;;;;5089802;28;19973;-61
2022/02/03 07:43:27;;;;;;;;;;;23.60;28.60;;;;;;5089420;28;19965;-60
2022/02/03 07:45:54;;;;;;;;;;;23.60;28.60;;;;;;5086932;28;20010;-63
2022/02/03 07:48:22;;;;;;;;;;;23.60;28.40;;;;;;5093530;28;20384;-64
2022/02/03 07:50:49;;;;;;;;;;;23.50;28.40;;;;;;5110344;28;19919;-64
2022/02/03 07:53:16;;;;;;;;;;;23.50;28.60;;;;;;5109729;28;19920;-64
2022/02/03 07:55:43;;;;;;;;;;;23.60;28.70;;;;;;5110703;28;20457;-62
2022/02/03 07:58:10;;;;;;;;;;;23.60;28.70;;;;;;5109011;28;19924;-63
2022/02/03 08:00:37;;;;;;;;;;;23.50;28.80;;;;;;5080158;28;19974;-62
2022/02/03 08:03:12;;;;;;;;;;;23.60;28.90;;;;;;5083656;28;19938;-60
2022/02/03 08:05:42;;;;;;;;;;;23.60;29.00;;;;;;5089245;28;19924;-60
2022/02/03 08:08:28;;;;;;;;;;;23.60;29.00;;;;;;5081968;28;19928;-62
2022/02/03 08:11:00;;;;;;;;;;;23.60;29.10;;;;;;5085888;28;19980;-61
2022/02/03 08:13:32;;;;;;;;;;;23.60;29.10;;;;;;5083602;28;19920;-62
2022/02/03 08:16:11;;;;;;;;;;;23.60;29.20;;;;;;5088161;28;19959;-62
2022/02/03 08:18:41;;;;;;;;;;;23.60;29.20;;;;;;5081830;28;20380;-62
2022/02/03 08:21:11;;;;;;;;;;;23.60;29.20;;;;;;5083411;28;19981;-65
2022/02/03 08:23:58;;;;;;;;;;;23.60;29.30;;;;;;5061476;28;19959;-64
2022/02/03 08:32:34;;;;;;;;;;;23.70;29.50;;;;;;5065245;28;19973;-64
2022/02/03 08:35:19;;;;;;;;;;;23.70;29.50;;;;;;5088105;28;19920;-64
2022/02/03 08:38:00;;;;;;;;;;;23.70;29.50;;;;;;5078193;28;20397;-65
2022/02/03 08:40:43;;;;;;;;;;;23.70;29.40;;;;;;5072570;28;19928;-62
2022/02/03 08:43:14;;;;;;;;;;;23.80;29.40;;;;;;5081858;28;19932;-61
2022/02/03 08:45:41;;;;;;;;;;;23.80;29.20;;;;;;5089765;28;19967;-63
2022/02/03 08:51:31;;;;;;;;;;;23.80;29.20;;;;;;5085758;28;20003;-67
2022/02/03 08:54:06;;;;;;;;;;;23.80;29.20;;;;;;5086431;28;19985;-64
2022/02/03 08:56:45;;;;;;;;;;;23.80;29.20;;;;;;5088412;28;19936;-68
2022/02/03 08:59:39;;;;;;;;;;;23.90;29.10;;;;;;5086141;28;20373;-66
2022/02/03 09:33:21;;;;;;;;;;;24.10;29.30;;;;;;5090179;28;20676;-62
2022/02/03 09:34:56;;;;;;;;;;;24.10;29.20;;;;;;5077155;28;19927;-62
2022/02/03 09:37:48;;;;;;;;;;;24.10;29.30;;;;;;5073408;28;19959;-67
2022/02/03 09:50:12;;;;;;;;;;;24.10;29.40;;;;;;5074376;28;19959;-64
2022/02/03 09:51:42;;;;;;;;;;;24.20;29.60;;;;;;5072834;28;19943;-61
2022/02/03 09:54:24;;;;;;;;;;;24.20;29.80;;;;;;5087646;28;19963;-64
2022/02/03 09:57:06;;;;;;;;;;;24.20;29.90;;;;;;5092125;28;19920;-63
2022/02/03 09:59:41;;;;;;;;;;;24.20;29.80;;;;;;5092676;28;19949;-60
2022/02/03 10:02:13;;;;;;;;;;;24.20;29.70;;;;;;5092611;28;19919;-63
2022/02/03 10:04:50;;;;;;;;;;;24.20;29.70;;;;;;5090187;28;19932;-63
2022/02/03 10:07:24;;;;;;;;;;;24.30;29.70;;;;;;5091209;28;19978;-61
2022/02/03 10:09:52;;;;;;;;;;;24.30;29.80;;;;;;5091956;28;19998;-63
2022/02/03 10:12:30;;;;;;;;;;;24.30;29.70;;;;;;5092466;28;19927;-66
2022/02/03 10:14:57;;;;;;;;;;;24.30;29.70;;;;;;5091294;28;20361;-63
2022/02/03 10:17:37;;;;;;;;;;;24.40;29.50;;;;;;5091598;28;19920;-65
2022/02/03 10:20:09;;;;;;;;;;;24.40;29.40;;;;;;5090556;28;19920;-66
2022/02/03 10:22:57;;;;;;;;;;;24.40;29.30;;;;;;5086911;28;19928;-65
2022/02/03 10:25:28;;;;;;;;;;;24.40;29.30;;;;;;5075678;28;20387;-66
2022/02/03 10:31:04;;;;;;;;;;;24.40;29.20;;;;;;5086132;28;19930;-62
2022/02/03 10:33:33;;;;;;;;;;;24.40;29.20;;;;;;5085242;28;19931;-63
2022/02/03 10:36:08;;;;;;;;;;;24.50;29.20;;;;;;5079670;28;19985;-61
2022/02/03 10:45:18;;;;;;;;;;;24.50;28.90;;;;;;5072374;28;19951;-60
2022/02/03 10:48:03;;;;;;;;;;;24.50;28.80;;;;;;5088758;28;19928;-62
2022/02/03 10:50:47;;;;;;;;;;;24.50;28.70;;;;;;5090922;28;20294;-61
2022/02/03 11:03:04;;;;;;;;;;;24.50;28.40;;;;;;5075550;28;19973;-61
2022/02/03 11:05:46;;;;;;;;;;;24.50;28.30;;;;;;5089362;28;19964;-62
2022/02/03 11:08:20;;;;;;;;;;;24.40;28.30;;;;;;5067579;28;19924;-67
2022/02/03 11:10:51;;;;;;;;;;;24.40;28.20;;;;;;5070540;28;19974;-66
2022/02/03 11:13:19;;;;;;;;;;;24.40;27.90;;;;;;5069964;28;19920;-63
2022/02/03 11:15:48;;;;;;;;;;;24.40;27.70;;;;;;5069414;28;19921;-65
2022/02/03 11:18:16;;;;;;;;;;;24.30;27.50;;;;;;5077342;28;20038;-66
2022/02/03 11:20:44;;;;;;;;;;;24.30;25.80;;;;;;5070381;28;19920;-63
2022/02/03 11:23:24;;;;;;;;;;;24.10;23.30;;;;;;5069865;28;19965;-63
2022/02/03 11:26:02;;;;;;;;;;;23.80;22.40;;;;;;5070091;28;20297;-66
2022/02/03 11:37:32;;;;;;;;;;;23.50;26.50;;;;;;5090876;28;19963;-65
2022/02/03 11:46:21;;;;;;;;;;;23.70;26.50;;;;;;5066077;28;19949;-65
2022/02/03 11:49:09;;;;;;;;;;;23.70;26.60;;;;;;5081029;28;19920;-66
2022/02/03 11:54:54;;;;;;;;;;;23.80;26.50;;;;;;5081453;28;20441;-66
2022/02/03 11:57:48;;;;;;;;;;;23.80;26.50;;;;;;5080910;28;19927;-66
2022/02/03 12:03:13;;;;;;;;;;;23.90;26.40;;;;;;5065745;28;19924;-66
2022/02/03 12:06:27;;;;;;;;;;;23.90;26.40;;;;;;5081854;28;20041;-65
2022/02/03 12:10:25;;;;;;;;;;;23.80;26.20;;;;;;5082749;28;19950;-65
2022/02/03 12:11:52;;;;;;;;;;;23.90;26.30;;;;;;5075342;28;19977;-63
2022/02/03 12:17:14;;;;;;;;;;;23.90;26.20;;;;;;5063018;28;19920;-62
2022/02/03 12:19:55;;;;;;;;;;;23.80;26.30;;;;;;5082936;28;19962;-62
2022/02/03 12:23:12;;;;;;;;;;;23.80;26.60;;;;;;5078540;28;19954;-66
2022/02/03 12:25:30;;;;;;;;;;;23.80;26.80;;;;;;5085346;28;19923;-66
2022/02/03 12:28:10;;;;;;;;;;;23.90;26.80;;;;;;5085194;28;19978;-64
2022/02/03 12:39:19;;;;;;;;;;;23.90;27.00;;;;;;5087730;28;19963;-63
2022/02/03 12:44:50;;;;;;;;;;;23.90;27.30;;;;;;5088874;28;19947;-63
2022/02/03 12:47:17;;;;;;;;;;;23.90;27.30;;;;;;5089988;28;19946;-65
2022/02/03 12:49:45;;;;;;;;;;;24.00;27.40;;;;;;5088737;28;19920;-65
2022/02/03 12:52:20;;;;;;;;;;;23.90;27.30;;;;;;5089505;28;19926;-64
2022/02/03 12:54:47;;;;;;;;;;;24.00;27.40;;;;;;5089657;28;19924;-63
2022/02/03 12:57:25;;;;;;;;;;;24.00;27.60;;;;;;5089018;28;19920;-64
2022/02/03 13:00:16;;;;;;;;;;;24.00;27.60;;;;;;5080607;28;19928;-65
2022/02/03 13:02:58;;;;;;;;;;;24.00;27.70;;;;;;5086100;28;20716;-66
2022/02/03 13:05:27;;;;;;;;;;;24.00;27.60;;;;;;5083016;28;19928;-64
2022/02/03 13:07:56;;;;;;;;;;;24.10;27.60;;;;;;5082387;28;19924;-63
2022/02/03 13:10:24;;;;;;;;;;;24.10;27.50;;;;;;5083234;28;19924;-63
2022/02/03 13:13:02;;;;;;;;;;;24.00;27.40;;;;;;5084385;28;20384;-64
2022/02/03 13:15:30;;;;;;;;;;;24.00;27.20;;;;;;5083899;28;20381;-63
2022/02/03 13:21:35;;;;;;;;;;;24.00;27.00;;;;;;5081150;28;19928;-65
2022/02/03 13:24:10;;;;;;;;;;;24.00;26.90;;;;;;5085963;28;19963;-63
2022/02/03 13:26:38;;;;;;;;;;;24.10;26.80;;;;;;5088645;28;19989;-64
2022/02/03 13:29:08;;;;;;;;;;;24.10;26.70;;;;;;5089678;28;19924;-63
2022/02/03 13:32:03;;;;;;;;;;;24.10;26.70;;;;;;5101890;28;19971;-63
2022/02/03 13:34:35;;;;;;;;;;;24.10;26.60;;;;;;5084154;28;20331;-68
2022/02/03 13:37:30;;;;;;;;;;;24.10;26.60;;;;;;5088168;28;19924;-63
2022/02/03 13:40:13;;;;;;;;;;;24.10;26.50;;;;;;5089023;28;20377;-64
2022/02/03 13:42:46;;;;;;;;;;;24.10;26.50;;;;;;5083369;28;20007;-67
2022/02/03 13:45:14;;;;;;;;;;;24.10;26.70;;;;;;5088484;28;20365;-65
2022/02/03 13:47:42;;;;;;;;;;;24.10;26.90;;;;;;5089575;28;19963;-67
2022/02/03 13:50:24;;;;;;;;;;;24.10;27.20;;;;;;5088809;28;20333;-67
2022/02/03 13:52:58;;;;;;;;;;;24.10;27.30;;;;;;5085554;28;19977;-67
2022/02/03 14:15:22;;;;;;;;;;;24.20;27.10;;;;;;5091605;28;19955;-63
2022/02/03 14:18:19;;;;;;;;;;;24.20;27.20;;;;;;5090872;28;19920;-63
2022/02/03 14:20:47;;;;;;;;;;;24.20;27.20;;;;;;5092662;28;19950;-64
2022/02/03 14:26:49;;;;;;;;;;;24.20;27.20;;;;;;5092950;28;20343;-63
2022/02/03 14:28:51;;;;;;;;;;;24.20;27.20;;;;;;5088911;28;19920;-64
2022/02/03 14:31:19;;;;;;;;;;;24.20;27.20;;;;;;5080859;28;19959;-67
2022/02/03 14:33:47;;;;;;;;;;;24.20;27.30;;;;;;5084930;28;20381;-68
2022/02/03 14:36:19;;;;;;;;;;;24.20;27.30;;;;;;5081374;28;20346;-68
2022/02/03 14:39:08;;;;;;;;;;;24.20;27.30;;;;;;5084810;28;19973;-65
2022/02/03 14:41:39;;;;;;;;;;;24.20;27.20;;;;;;5085931;28;19924;-63
2022/02/03 14:44:08;;;;;;;;;;;24.20;27.20;;;;;;5074638;28;20407;-63
2022/02/03 14:46:35;;;;;;;;;;;24.20;27.20;;;;;;5084294;28;19920;-66
2022/02/03 14:49:02;;;;;;;;;;;24.20;27.20;;;;;;5067980;28;20007;-66
2022/02/03 14:51:31;;;;;;;;;;;24.20;27.10;;;;;;5085881;28;20437;-68
2022/02/03 14:59:27;;;;;;;;;;;24.20;27.20;;;;;;5090771;28;19920;-63
2022/02/03 15:01:54;;;;;;;;;;;24.20;27.10;;;;;;5091750;28;20075;-63
2022/02/03 15:04:28;;;;;;;;;;;24.20;27.10;;;;;;5089318;28;20376;-63
2022/02/03 15:07:00;;;;;;;;;;;24.20;27.10;;;;;;5088395;28;20380;-63
2022/02/03 15:10:01;;;;;;;;;;;24.20;27.00;;;;;;5102127;28;19980;-64
2022/02/03 15:12:38;;;;;;;;;;;24.10;27.00;;;;;;5089476;28;20270;-63
2022/02/03 15:15:02;;;;;;;;;;;24.20;27.10;;;;;;5090051;28;19934;-64
2022/02/03 15:17:31;;;;;;;;;;;24.10;27.10;;;;;;5081227;28;19923;-67
2022/02/03 15:19:58;;;;;;;;;;;24.20;27.30;;;;;;5089019;28;20337;-66
2022/02/03 15:22:26;;;;;;;;;;;24.10;27.10;;;;;;5083664;28;19990;-64
2022/02/03 15:24:53;;;;;;;;;;;24.10;26.90;;;;;;5084676;28;19920;-66
2022/02/03 15:27:20;;;;;;;;;;;24.10;26.70;;;;;;5091656;28;20281;-64
2022/02/03 15:29:49;;;;;;;;;;;24.10;26.70;;;;;;5088584;28;19924;-65
2022/02/03 15:32:16;;;;;;;;;;;24.10;26.70;;;;;;5087319;28;19966;-64
2022/02/03 15:34:44;;;;;;;;;;;24.10;26.60;;;;;;5106117;28;19959;-64
2022/02/03 15:37:14;;;;;;;;;;;24.10;26.60;;;;;;5087766;28;19919;-64
2022/02/03 15:39:48;;;;;;;;;;;24.10;26.60;;;;;;5105486;28;19919;-63
2022/02/03 15:42:25;;;;;;;;;;;24.00;26.60;;;;;;5093843;28;19924;-61
2022/02/03 15:44:54;;;;;;;;;;;24.00;26.60;;;;;;5088200;28;19920;-60
2022/02/03 15:47:29;;;;;;;;;;;24.00;26.60;;;;;;5087058;28;19923;-61
2022/02/03 15:50:38;;;;;;;;;;;24.00;26.60;;;;;;5088098;28;19923;-62
2022/02/03 16:02:05;;;;;;;;;;;23.90;26.40;;;;;;5099898;28;19915;-64
2022/02/03 16:18:23;;;;;;;;;;;23.70;26.90;;;;;;5083091;28;19919;-64
2022/02/03 16:20:58;;;;;;;;;;;23.60;27.00;;;;;;5087823;28;19920;-66
2022/02/03 16:40:45;;;;;;;;;;;23.60;27.50;;;;;;5079819;28;20408;-62
2022/02/03 16:50:22;;;;;;;;;;;23.50;28.10;;;;;;5070949;28;19920;-66
2022/02/03 16:54:49;;;;;;;;;;;23.40;28.60;;;;;;5084683;28;20014;-63
2022/02/03 16:57:20;;;;;;;;;;;23.40;28.40;;;;;;5085073;28;19946;-63
2022/02/03 17:00:06;;;;;;;;;;;23.40;28.20;;;;;;5086913;28;19920;-62
2022/02/03 17:02:54;;;;;;;;;;;23.40;28.10;;;;;;5080992;28;20042;-62
2022/02/03 17:05:21;;;;;;;;;;;23.40;28.00;;;;;;5104214;28;19941;-61
2022/02/03 17:07:48;;;;;;;;;;;23.30;27.90;;;;;;5084811;28;20272;-62
2022/02/03 17:10:15;;;;;;;;;;;23.30;27.90;;;;;;5087260;28;19985;-62
2022/02/03 17:12:42;;;;;;;;;;;23.30;28.00;;;;;;5085776;28;19927;-61
2022/02/03 17:15:09;;;;;;;;;;;23.30;28.00;;;;;;5087464;28;19928;-62
2022/02/03 17:17:36;;;;;;;;;;;23.30;28.00;;;;;;5086147;28;19951;-62
2022/02/03 17:20:04;;;;;;;;;;;23.30;28.00;;;;;;5087867;28;19924;-62
2022/02/03 17:22:36;;;;;;;;;;;23.30;28.00;;;;;;5085039;28;19924;-62
2022/02/03 17:25:19;;;;;;;;;;;23.30;28.00;;;;;;5087372;28;19959;-62
2022/02/03 17:28:03;;;;;;;;;;;23.30;28.00;;;;;;5085323;28;20034;-62
2022/02/03 17:30:39;;;;;;;;;;;23.30;28.00;;;;;;5090460;28;19977;-61
2022/02/03 17:45:34;;;;;;;;;;;23.30;28.50;;;;;;5091416;28;20276;-62
2022/02/03 17:54:24;;;;;;;;;;;23.20;28.60;;;;;;5089345;28;19924;-62
2022/02/03 18:10:01;;;;;;;;;;;23.20;29.10;;;;;;5091034;28;20118;-63
2022/02/03 18:18:45;;;;;;;;;;;23.10;29.50;;;;;;5087981;28;20347;-63
2022/02/03 18:47:02;;;;;;;;;;;23.00;29.60;;;;;;5088377;28;19924;-64
2022/02/03 18:49:51;;;;;;;;;;;23.00;29.60;;;;;;5089857;28;19974;-64
2022/02/03 18:51:46;;;;;;;;;;;23.00;29.60;;;;;;5087931;28;19990;-64
2022/02/03 18:54:20;;;;;;;;;;;22.90;29.60;;;;;;5090568;28;19920;-64
2022/02/03 18:57:16;;;;;;;;;;;22.90;29.60;;;;;;5087387;28;20368;-63
2022/02/03 19:20:53;;;;;;;;;;;22.90;29.50;;;;;;5087493;28;20019;-63
2022/02/03 20:01:40;;;;;;;;;;;22.80;29.50;;;;;;5072267;28;20452;-63
2022/02/03 20:07:02;;;;;;;;;;;22.70;29.40;;;;;;5100099;28;19920;-63
2022/02/03 20:12:16;;;;;;;;;;;22.70;29.40;;;;;;5086172;28;19996;-63
2022/02/03 20:14:43;;;;;;;;;;;22.70;29.40;;;;;;5088565;28;20393;-63
2022/02/03 20:17:12;;;;;;;;;;;22.70;29.40;;;;;;5086008;28;19920;-63
2022/02/03 20:19:39;;;;;;;;;;;22.70;29.50;;;;;;5088143;28;20219;-63
2022/02/03 20:22:06;;;;;;;;;;;22.70;29.50;;;;;;5085830;28;19924;-63
2022/02/03 20:24:33;;;;;;;;;;;22.70;29.50;;;;;;5088536;28;19920;-63
2022/02/03 20:27:01;;;;;;;;;;;22.70;29.50;;;;;;5086179;28;19920;-63
2022/02/03 20:29:28;;;;;;;;;;;22.60;29.50;;;;;;5088064;28;19970;-63
2022/02/03 20:31:55;;;;;;;;;;;22.60;29.50;;;;;;5085983;28;19981;-63
2022/02/03 20:34:22;;;;;;;;;;;22.60;29.40;;;;;;5088143;28;19994;-63
2022/02/03 20:36:49;;;;;;;;;;;22.60;29.40;;;;;;5086060;28;19927;-63
2022/02/03 20:39:16;;;;;;;;;;;22.60;29.40;;;;;;5088583;28;20019;-63
2022/02/03 20:41:43;;;;;;;;;;;22.60;29.50;;;;;;5100841;28;20010;-63
2022/02/03 20:44:10;;;;;;;;;;;22.60;29.50;;;;;;5088309;28;19973;-63
2022/02/03 20:46:37;;;;;;;;;;;22.60;29.40;;;;;;5085493;28;20159;-63
2022/02/03 20:49:11;;;;;;;;;;;22.60;29.40;;;;;;5088298;28;19920;-63
2022/02/03 20:51:38;;;;;;;;;;;22.60;29.40;;;;;;5068086;28;19928;-63
2022/02/03 20:54:05;;;;;;;;;;;22.60;29.40;;;;;;5087826;28;19970;-63
2022/02/03 20:56:32;;;;;;;;;;;22.60;29.40;;;;;;5085497;28;19970;-63
2022/02/03 20:59:03;;;;;;;;;;;22.60;29.40;;;;;;5087622;28;19963;-63
2022/02/03 21:01:33;;;;;;;;;;;22.60;29.50;;;;;;5085251;28;20021;-63
2022/02/03 21:04:11;;;;;;;;;;;22.50;29.40;;;;;;5087614;28;20242;-63
2022/02/03 21:06:38;;;;;;;;;;;22.50;29.40;;;;;;5085911;28;20418;-63
2022/02/03 21:09:07;;;;;;;;;;;22.60;29.40;;;;;;5087167;28;19963;-63
2022/02/03 21:11:34;;;;;;;;;;;22.50;29.40;;;;;;5086081;28;19967;-64
2022/02/03 21:14:06;;;;;;;;;;;22.50;29.40;;;;;;5087171;28;19927;-63
2022/02/03 21:16:33;;;;;;;;;;;22.60;29.40;;;;;;5085305;28;20087;-63
2022/02/03 21:19:01;;;;;;;;;;;22.50;29.40;;;;;;5087180;28;19948;-63
2022/02/03 21:21:30;;;;;;;;;;;22.50;29.40;;;;;;5085362;28;20148;-64
2022/02/03 21:23:57;;;;;;;;;;;22.60;29.40;;;;;;5087706;28;19970;-63
2022/02/03 21:26:37;;;;;;;;;;;22.60;29.30;;;;;;5086292;28;20114;-63
2022/02/03 21:29:04;;;;;;;;;;;22.60;29.30;;;;;;5087485;28;19928;-63
2022/02/03 21:31:32;;;;;;;;;;;22.60;29.30;;;;;;5086019;28;19985;-63
2022/02/03 21:33:59;;;;;;;;;;;22.60;29.30;;;;;;5087317;28;20350;-63
2022/02/03 21:36:34;;;;;;;;;;;22.70;29.30;;;;;;5086118;28;20395;-63
2022/02/03 21:39:01;;;;;;;;;;;22.70;29.30;;;;;;5087547;28;19965;-63
2022/02/03 21:41:28;;;;;;;;;;;22.70;29.30;;;;;;5085454;28;19920;-63
2022/02/03 21:43:56;;;;;;;;;;;22.70;29.30;;;;;;5087344;28;19959;-63
2022/02/03 21:46:23;;;;;;;;;;;22.70;29.30;;;;;;5085373;28;19920;-63
2022/02/03 21:48:50;;;;;;;;;;;22.70;29.20;;;;;;5087170;28;19970;-63
2022/02/03 21:51:22;;;;;;;;;;;22.70;29.20;;;;;;5086288;28;20288;-63
2022/02/03 21:53:50;;;;;;;;;;;22.70;29.30;;;;;;5087110;28;20447;-63
2022/02/03 21:56:18;;;;;;;;;;;22.70;29.20;;;;;;5086392;28;20496;-63
2022/02/03 21:58:45;;;;;;;;;;;22.70;29.20;;;;;;5086995;28;20067;-63
2022/02/03 22:01:13;;;;;;;;;;;22.70;29.20;;;;;;5085520;28;20342;-63
2022/02/03 22:06:44;;;;;;;;;;;22.70;29.20;;;;;;5085512;28;19924;-63
2022/02/03 22:09:11;;;;;;;;;;;22.70;29.20;;;;;;5086885;28;20365;-63
2022/02/03 22:11:39;;;;;;;;;;;22.70;29.20;;;;;;5085222;28;19923;-63
2022/02/03 22:14:06;;;;;;;;;;;22.70;29.20;;;;;;5087144;28;20357;-63
2022/02/03 22:16:35;;;;;;;;;;;22.70;29.20;;;;;;5088621;28;20092;-63
2022/02/03 22:19:02;;;;;;;;;;;22.70;29.20;;;;;;5090619;28;19920;-63
2022/02/03 22:21:40;;;;;;;;;;;22.70;29.20;;;;;;5088327;28;19959;-63
2022/02/03 22:24:18;;;;;;;;;;;22.70;29.20;;;;;;5090973;28;19924;-63
2022/02/03 22:27:10;;;;;;;;;;;22.70;29.20;;;;;;5088286;28;20009;-63
2022/02/03 22:42:24;;;;;;;;;;;22.70;29.20;;;;;;5088816;28;19914;-63
2022/02/03 22:44:22;;;;;;;;;;;22.70;29.20;;;;;;5090275;28;20438;-63
2022/02/03 22:47:05;;;;;;;;;;;22.70;29.20;;;;;;5087528;28;20309;-63
2022/02/03 22:49:33;;;;;;;;;;;22.70;29.20;;;;;;5089992;28;19923;-63
2022/02/03 22:52:00;;;;;;;;;;;22.70;29.20;;;;;;5087636;28;19960;-63
2022/02/03 22:54:27;;;;;;;;;;;22.70;29.20;;;;;;5090269;28;19920;-63
2022/02/03 22:56:54;;;;;;;;;;;22.70;29.20;;;;;;5087944;28;20018;-63
2022/02/03 23:02:08;;;;;;;;;;;22.70;29.20;;;;;;5072564;28;20485;-63
2022/02/03 23:04:35;;;;;;;;;;;22.70;29.20;;;;;;5090123;28;19959;-63
2022/02/03 23:07:19;;;;;;;;;;;22.70;29.20;;;;;;5087883;28;19951;-63
2022/02/03 23:09:54;;;;;;;;;;;22.60;29.20;;;;;;5089696;28;20095;-63
2022/02/03 23:12:43;;;;;;;;;;;22.60;29.20;;;;;;5087796;28;19951;-63
2022/02/03 23:18:02;;;;;;;;;;;22.60;29.20;;;;;;5072660;28;19920;-63
2022/02/03 23:20:43;;;;;;;;;;;22.60;29.20;;;;;;5089579;28;20362;-63
2022/02/03 23:26:38;;;;;;;;;;;22.60;29.20;;;;;;5086019;28;20019;-63
2022/02/03 23:29:12;;;;;;;;;;;22.60;29.20;;;;;;5089243;28;19919;-63
2022/02/03 23:32:07;;;;;;;;;;;22.60;29.20;;;;;;5087245;28;19924;-63
2022/02/03 23:34:25;;;;;;;;;;;22.60;29.20;;;;;;5089310;28;19949;-63